Ituna, Canada
Current Conditions -  °F | °C
As of 8:16 AM on Thursday 18 Dec 2014 (Local Time) from CYQV Reporting Station
Light Snow Light Snow  
Wind Chill:   Ceiling: 1100
Heat Index: 16°   Visibility: 9mi
Dew Point: 12°   Wind: 9mph
Humidity: 86%   Direction: 190°S
Pressure: 30.01"   Gusts: NA
Location:  51.17°N, 103.5°W
Report Text: CYQV 181416Z AUTO 19008KT 9SM -SN OVC011 M09/M11 A3001 RMK SLP205
Loading
Personal Weather Stations






























Interactive Weather Map New forecast layout! Learn more

10-Day Weather Forecast

Advertisements
Track Severe Weather on mobile